sensor_id;sensor_type;location;lat;lon;timestamp;pressure;altitude;pressure_sealevel;temperature;humidity
12636;BME280;6383;50.830;7.210;2023-06-24T00:00:03;101690.56;;;23.14;64.88
12636;BME280;6383;50.830;7.210;2023-06-24T00:02:34;101702.75;;;23.09;65.49
12636;BME280;6383;50.830;7.210;2023-06-24T00:05:04;101688.22;;;23.00;64.77
12636;BME280;6383;50.830;7.210;2023-06-24T00:07:33;101688.50;;;22.95;65.29
12636;BME280;6383;50.830;7.210;2023-06-24T00:10:04;101690.72;;;22.90;63.89
12636;BME280;6383;50.830;7.210;2023-06-24T00:12:34;101698.53;;;22.84;64.26
12636;BME280;6383;50.830;7.210;2023-06-24T00:15:05;101698.53;;;22.72;64.35
12636;BME280;6383;50.830;7.210;2023-06-24T00:17:35;101698.34;;;22.65;65.00
12636;BME280;6383;50.830;7.210;2023-06-24T00:20:04;101697.91;;;22.63;65.31
12636;BME280;6383;50.830;7.210;2023-06-24T00:22:37;101701.72;;;22.58;65.02
12636;BME280;6383;50.830;7.210;2023-06-24T00:25:06;101695.38;;;22.58;66.67
12636;BME280;6383;50.830;7.210;2023-06-24T00:27:34;101698.16;;;22.58;65.02
12636;BME280;6383;50.830;7.210;2023-06-24T00:30:05;101690.44;;;22.51;65.27
12636;BME280;6383;50.830;7.210;2023-06-24T00:32:33;101687.28;;;22.37;65.38
12636;BME280;6383;50.830;7.210;2023-06-24T00:35:03;101693.06;;;22.32;66.04
12636;BME280;6383;50.830;7.210;2023-06-24T00:37:32;101692.97;;;22.28;66.29
12636;BME280;6383;50.830;7.210;2023-06-24T00:40:02;101688.50;;;22.24;66.49
12636;BME280;6383;50.830;7.210;2023-06-24T00:42:31;101684.44;;;22.21;66.26
12636;BME280;6383;50.830;7.210;2023-06-24T00:45:01;101680.97;;;22.24;67.23
12636;BME280;6383;50.830;7.210;2023-06-24T00:47:33;101686.59;;;22.28;67.61
12636;BME280;6383;50.830;7.210;2023-06-24T00:50:01;101686.94;;;22.26;67.80
12636;BME280;6383;50.830;7.210;2023-06-24T00:52:29;101696.81;;;22.24;68.27
12636;BME280;6383;50.830;7.210;2023-06-24T00:54:58;101693.13;;;22.20;68.16
12636;BME280;6383;50.830;7.210;2023-06-24T00:57:29;101697.50;;;22.21;67.80
12636;BME280;6383;50.830;7.210;2023-06-24T00:59:59;101701.56;;;22.23;66.90
12636;BME280;6383;50.830;7.210;2023-06-24T01:02:27;101703.97;;;22.25;68.40
12636;BME280;6383;50.830;7.210;2023-06-24T01:05:01;101705.94;;;22.24;68.28
12636;BME280;6383;50.830;7.210;2023-06-24T01:07:31;101708.25;;;22.22;67.68
12636;BME280;6383;50.830;7.210;2023-06-24T01:10:00;101699.81;;;22.19;68.03
12636;BME280;6383;50.830;7.210;2023-06-24T01:12:29;101700.97;;;22.17;67.87
12636;BME280;6383;50.830;7.210;2023-06-24T01:14:58;101698.00;;;22.10;65.32
12636;BME280;6383;50.830;7.210;2023-06-24T01:17:32;101688.19;;;22.01;65.80
12636;BME280;6383;50.830;7.210;2023-06-24T01:20:08;101686.59;;;22.00;68.44
12636;BME280;6383;50.830;7.210;2023-06-24T01:25:55;101687.84;;;22.02;67.94
12636;BME280;6383;50.830;7.210;2023-06-24T01:28:40;101684.63;;;22.00;68.96
12636;BME280;6383;50.830;7.210;2023-06-24T01:31:31;101688.44;;;21.96;68.45
12636;BME280;6383;50.830;7.210;2023-06-24T01:34:08;101687.97;;;21.94;68.72
12636;BME280;6383;50.830;7.210;2023-06-24T01:36:41;101685.19;;;21.94;67.60
12636;BME280;6383;50.830;7.210;2023-06-24T01:39:12;101681.34;;;21.98;68.58
12636;BME280;6383;50.830;7.210;2023-06-24T01:41:47;101689.59;;;21.95;68.26
12636;BME280;6383;50.830;7.210;2023-06-24T01:44:16;101687.50;;;21.92;68.27
12636;BME280;6383;50.830;7.210;2023-06-24T01:46:50;101689.94;;;21.93;66.83
12636;BME280;6383;50.830;7.210;2023-06-24T01:49:21;101690.00;;;21.97;66.96
12636;BME280;6383;50.830;7.210;2023-06-24T01:51:52;101688.84;;;21.98;67.63
12636;BME280;6383;50.830;7.210;2023-06-24T01:54:20;101692.94;;;21.88;67.91
12636;BME280;6383;50.830;7.210;2023-06-24T01:56:52;101693.50;;;21.81;68.17
12636;BME280;6383;50.830;7.210;2023-06-24T01:59:23;101698.16;;;21.77;68.74
12636;BME280;6383;50.830;7.210;2023-06-24T02:01:52;101702.78;;;21.73;69.23
12636;BME280;6383;50.830;7.210;2023-06-24T02:04:21;101693.31;;;21.74;68.99
12636;BME280;6383;50.830;7.210;2023-06-24T02:06:51;101694.13;;;21.75;69.10
12636;BME280;6383;50.830;7.210;2023-06-24T02:09:22;101691.34;;;21.75;68.17
12636;BME280;6383;50.830;7.210;2023-06-24T02:11:53;101681.06;;;21.75;68.79
12636;BME280;6383;50.830;7.210;2023-06-24T02:14:21;101683.03;;;21.75;68.65
12636;BME280;6383;50.830;7.210;2023-06-24T02:16:53;101682.91;;;21.71;68.86
12636;BME280;6383;50.830;7.210;2023-06-24T02:19:24;101689.59;;;21.70;68.19
12636;BME280;6383;50.830;7.210;2023-06-24T02:21:54;101689.50;;;21.67;68.64
12636;BME280;6383;50.830;7.210;2023-06-24T02:24:26;101683.06;;;21.63;69.57
12636;BME280;6383;50.830;7.210;2023-06-24T02:26:56;101684.09;;;21.58;69.31
12636;BME280;6383;50.830;7.210;2023-06-24T02:29:26;101682.00;;;21.55;68.89
12636;BME280;6383;50.830;7.210;2023-06-24T02:31:57;101683.16;;;21.54;67.81
12636;BME280;6383;50.830;7.210;2023-06-24T02:34:24;101681.91;;;21.52;69.03
12636;BME280;6383;50.830;7.210;2023-06-24T02:36:53;101686.19;;;21.49;68.97
12636;BME280;6383;50.830;7.210;2023-06-24T02:39:20;101684.69;;;21.52;69.60
12636;BME280;6383;50.830;7.210;2023-06-24T02:41:48;101686.66;;;21.51;68.85
12636;BME280;6383;50.830;7.210;2023-06-24T02:44:18;101688.16;;;21.49;69.50
12636;BME280;6383;50.830;7.210;2023-06-24T02:46:47;101688.16;;;21.49;68.97
12636;BME280;6383;50.830;7.210;2023-06-24T02:49:20;101688.03;;;21.45;69.14
12636;BME280;6383;50.830;7.210;2023-06-24T02:51:49;101686.63;;;21.39;68.83
12636;BME280;6383;50.830;7.210;2023-06-24T02:54:18;101688.59;;;21.38;69.68
12636;BME280;6383;50.830;7.210;2023-06-24T02:56:48;101694.13;;;21.38;69.52
12636;BME280;6383;50.830;7.210;2023-06-24T02:59:15;101683.41;;;21.37;69.25
12636;BME280;6383;50.830;7.210;2023-06-24T03:01:43;101682.63;;;21.36;68.84
12636;BME280;6383;50.830;7.210;2023-06-24T03:04:12;101684.19;;;21.37;69.25
12636;BME280;6383;50.830;7.210;2023-06-24T03:06:43;101677.75;;;21.33;69.05
12636;BME280;6383;50.830;7.210;2023-06-24T03:09:13;101682.16;;;21.34;69.39
12636;BME280;6383;50.830;7.210;2023-06-24T03:11:43;101687.56;;;21.31;69.30
12636;BME280;6383;50.830;7.210;2023-06-24T03:14:11;101683.72;;;21.23;69.76
12636;BME280;6383;50.830;7.210;2023-06-24T03:16:41;101700.56;;;21.18;69.07
12636;BME280;6383;50.830;7.210;2023-06-24T03:19:10;101691.94;;;21.20;69.66
12636;BME280;6383;50.830;7.210;2023-06-24T03:21:39;101699.75;;;21.18;70.11
12636;BME280;6383;50.830;7.210;2023-06-24T03:24:10;101699.75;;;21.18;69.73
12636;BME280;6383;50.830;7.210;2023-06-24T03:26:39;101694.56;;;21.16;69.80
12636;BME280;6383;50.830;7.210;2023-06-24T03:29:08;101696.69;;;21.19;68.86
12636;BME280;6383;50.830;7.210;2023-06-24T03:31:38;101700.25;;;21.20;69.86
12636;BME280;6383;50.830;7.210;2023-06-24T03:34:11;101706.78;;;21.15;69.87
12636;BME280;6383;50.830;7.210;2023-06-24T03:36:41;101703.06;;;21.11;69.48
12636;BME280;6383;50.830;7.210;2023-06-24T03:39:11;101702.38;;;21.02;68.04
12636;BME280;6383;50.830;7.210;2023-06-24T03:41:40;101703.63;;;20.92;68.32
12636;BME280;6383;50.830;7.210;2023-06-24T03:44:08;101698.88;;;20.93;70.25
12636;BME280;6383;50.830;7.210;2023-06-24T03:46:37;101702.03;;;20.91;70.24
12636;BME280;6383;50.830;7.210;2023-06-24T03:49:05;101697.16;;;20.88;69.99
12636;BME280;6383;50.830;7.210;2023-06-24T03:51:33;101695.22;;;20.89;70.94
12636;BME280;6383;50.830;7.210;2023-06-24T03:54:01;101695.69;;;20.91;70.05
12636;BME280;6383;50.830;7.210;2023-06-24T03:56:31;101691.06;;;20.95;69.60
12636;BME280;6383;50.830;7.210;2023-06-24T03:58:59;101694.75;;;20.99;70.87
12636;BME280;6383;50.830;7.210;2023-06-24T04:01:27;101691.06;;;20.95;70.79
12636;BME280;6383;50.830;7.210;2023-06-24T04:03:59;101698.88;;;20.93;70.51
12636;BME280;6383;50.830;7.210;2023-06-24T04:06:28;101700.06;;;20.92;70.06
12636;BME280;6383;50.830;7.210;2023-06-24T04:08:57;101701.22;;;20.91;70.81
12636;BME280;6383;50.830;7.210;2023-06-24T04:11:25;101706.75;;;20.91;71.28
12636;BME280;6383;50.830;7.210;2023-06-24T04:13:58;101712.50;;;20.86;70.45
12636;BME280;6383;50.830;7.210;2023-06-24T04:16:27;101703.59;;;20.80;70.84
12636;BME280;6383;50.830;7.210;2023-06-24T04:18:54;101717.41;;;20.80;69.69
12636;BME280;6383;50.830;7.210;2023-06-24T04:21:22;101712.94;;;20.75;69.72
12636;BME280;6383;50.830;7.210;2023-06-24T04:23:50;101725.25;;;20.78;70.27
12636;BME280;6383;50.830;7.210;2023-06-24T04:26:17;101723.19;;;20.75;71.39
12636;BME280;6383;50.830;7.210;2023-06-24T04:28:46;101719.72;;;20.78;71.41
12636;BME280;6383;50.830;7.210;2023-06-24T04:31:15;101724.09;;;20.79;72.24
12636;BME280;6383;50.830;7.210;2023-06-24T04:33:44;101718.22;;;20.81;71.97
12636;BME280;6383;50.830;7.210;2023-06-24T04:36:13;101722.63;;;20.82;71.88
12636;BME280;6383;50.830;7.210;2023-06-24T04:38:40;101719.84;;;20.82;71.01
12636;BME280;6383;50.830;7.210;2023-06-24T04:41:09;101725.50;;;20.73;70.89
12636;BME280;6383;50.830;7.210;2023-06-24T04:43:38;101726.84;;;20.67;70.95
12636;BME280;6383;50.830;7.210;2023-06-24T04:46:08;101719.34;;;20.67;72.03
12636;BME280;6383;50.830;7.210;2023-06-24T04:48:37;101726.28;;;20.73;72.59
12636;BME280;6383;50.830;7.210;2023-06-24T04:51:06;101724.22;;;20.70;71.24
12636;BME280;6383;50.830;7.210;2023-06-24T04:53:35;101727.16;;;20.65;70.75
12636;BME280;6383;50.830;7.210;2023-06-24T04:56:03;101728.22;;;20.61;72.27
12636;BME280;6383;50.830;7.210;2023-06-24T04:58:32;101725.88;;;20.63;71.84
12636;BME280;6383;50.830;7.210;2023-06-24T05:01:00;101727.16;;;20.65;71.67
12636;BME280;6383;50.830;7.210;2023-06-24T05:03:29;101734.56;;;20.61;72.00
12636;BME280;6383;50.830;7.210;2023-06-24T05:06:00;101732.03;;;20.68;72.69
12636;BME280;6383;50.830;7.210;2023-06-24T05:08:29;101736.09;;;20.71;71.27
12636;BME280;6383;50.830;7.210;2023-06-24T05:10:58;101728.25;;;20.73;71.86
12636;BME280;6383;50.830;7.210;2023-06-24T05:13:29;101732.31;;;20.75;72.36
12636;BME280;6383;50.830;7.210;2023-06-24T05:15:56;101737.84;;;20.75;71.97
12636;BME280;6383;50.830;7.210;2023-06-24T05:18:25;101741.81;;;20.66;70.45
12636;BME280;6383;50.830;7.210;2023-06-24T05:20:54;101737.09;;;20.66;71.81
12636;BME280;6383;50.830;7.210;2023-06-24T05:25:53;101742.00;;;20.82;72.87
12636;BME280;6383;50.830;7.210;2023-06-24T05:28:21;101734.28;;;20.87;72.94
12636;BME280;6383;50.830;7.210;2023-06-24T05:30:49;101740.41;;;20.93;72.95
12636;BME280;6383;50.830;7.210;2023-06-24T05:33:17;101736.47;;;20.94;73.29
12636;BME280;6383;50.830;7.210;2023-06-24T05:35:45;101737.56;;;21.01;73.41
12636;BME280;6383;50.830;7.210;2023-06-24T05:38:12;101746.00;;;21.05;73.08
12636;BME280;6383;50.830;7.210;2023-06-24T05:40:42;101735.59;;;21.02;71.53
12636;BME280;6383;50.830;7.210;2023-06-24T05:43:11;101734.91;;;21.05;72.67
12636;BME280;6383;50.830;7.210;2023-06-24T05:45:40;101734.69;;;21.10;73.85
12636;BME280;6383;50.830;7.210;2023-06-24T05:48:10;101731.69;;;21.15;73.39
12636;BME280;6383;50.830;7.210;2023-06-24T05:50:37;101729.19;;;21.22;73.78
12636;BME280;6383;50.830;7.210;2023-06-24T05:53:05;101721.34;;;21.24;73.38
12636;BME280;6383;50.830;7.210;2023-06-24T05:55:35;101724.72;;;21.30;73.63
12636;BME280;6383;50.830;7.210;2023-06-24T05:58:05;101729.22;;;21.34;73.36
12636;BME280;6383;50.830;7.210;2023-06-24T06:00:33;101723.09;;;21.41;73.56
12636;BME280;6383;50.830;7.210;2023-06-24T06:03:02;101729.56;;;21.45;74.65
12636;BME280;6383;50.830;7.210;2023-06-24T06:05:30;101739.16;;;21.48;73.82
12636;BME280;6383;50.830;7.210;2023-06-24T06:07:58;101738.91;;;21.53;74.23
12636;BME280;6383;50.830;7.210;2023-06-24T06:10:26;101739.03;;;21.56;74.15
12636;BME280;6383;50.830;7.210;2023-06-24T06:12:55;101738.47;;;21.63;74.41
12636;BME280;6383;50.830;7.210;2023-06-24T06:15:25;101739.75;;;21.65;74.25
12636;BME280;6383;50.830;7.210;2023-06-24T06:18:09;101744.22;;;21.70;73.94
12636;BME280;6383;50.830;7.210;2023-06-24T06:20:44;101732.44;;;21.73;73.15
12636;BME280;6383;50.830;7.210;2023-06-24T06:23:11;101736.16;;;21.77;74.24
12636;BME280;6383;50.830;7.210;2023-06-24T06:25:40;101739.13;;;21.84;73.79
12636;BME280;6383;50.830;7.210;2023-06-24T06:28:08;101742.38;;;21.86;73.52
12636;BME280;6383;50.830;7.210;2023-06-24T06:30:37;101735.44;;;21.92;73.22
12636;BME280;6383;50.830;7.210;2023-06-24T06:33:05;101738.31;;;21.96;73.07
12636;BME280;6383;50.830;7.210;2023-06-24T06:35:34;101741.91;;;21.96;72.43
12636;BME280;6383;50.830;7.210;2023-06-24T06:38:04;101741.09;;;21.96;73.00
12636;BME280;6383;50.830;7.210;2023-06-24T06:40:33;101749.31;;;22.04;73.66
12636;BME280;6383;50.830;7.210;2023-06-24T06:43:02;101745.50;;;22.09;72.41
12636;BME280;6383;50.830;7.210;2023-06-24T06:45:29;101742.47;;;22.14;72.20
12636;BME280;6383;50.830;7.210;2023-06-24T06:47:59;101746.97;;;22.19;72.45
12636;BME280;6383;50.830;7.210;2023-06-24T06:50:28;101748.47;;;22.16;72.24
12636;BME280;6383;50.830;7.210;2023-06-24T06:52:57;101745.00;;;22.19;73.07
12636;BME280;6383;50.830;7.210;2023-06-24T06:55:25;101747.19;;;22.26;72.23
12636;BME280;6383;50.830;7.210;2023-06-24T06:57:55;101744.97;;;22.31;71.34
12636;BME280;6383;50.830;7.210;2023-06-24T07:00:24;101742.75;;;22.37;71.97
12636;BME280;6383;50.830;7.210;2023-06-24T07:02:53;101743.66;;;22.41;71.19
12636;BME280;6383;50.830;7.210;2023-06-24T07:05:24;101743.06;;;22.47;72.08
12636;BME280;6383;50.830;7.210;2023-06-24T07:07:53;101749.06;;;22.49;69.37
12636;BME280;6383;50.830;7.210;2023-06-24T07:10:21;101751.28;;;22.44;68.17
12636;BME280;6383;50.830;7.210;2023-06-24T07:12:50;101761.22;;;22.45;67.10
12636;BME280;6383;50.830;7.210;2023-06-24T07:15:25;101747.81;;;22.47;67.64
12636;BME280;6383;50.830;7.210;2023-06-24T07:17:54;101754.72;;;22.53;68.17
12636;BME280;6383;50.830;7.210;2023-06-24T07:20:24;101757.00;;;22.63;69.39
12636;BME280;6383;50.830;7.210;2023-06-24T07:22:53;101759.41;;;22.65;68.25
12636;BME280;6383;50.830;7.210;2023-06-24T07:25:22;101753.97;;;22.68;70.06
12636;BME280;6383;50.830;7.210;2023-06-24T07:27:51;101761.50;;;22.68;67.69
12636;BME280;6383;50.830;7.210;2023-06-24T07:30:20;101763.53;;;22.71;68.40
12636;BME280;6383;50.830;7.210;2023-06-24T07:32:49;101762.38;;;22.72;67.15
12636;BME280;6383;50.830;7.210;2023-06-24T07:35:18;101760.06;;;22.74;68.18
12636;BME280;6383;50.830;7.210;2023-06-24T07:37:49;101763.19;;;22.84;68.82
12636;BME280;6383;50.830;7.210;2023-06-24T07:40:17;101763.81;;;22.94;68.37
12636;BME280;6383;50.830;7.210;2023-06-24T07:42:48;101755.66;;;23.01;68.66
12636;BME280;6383;50.830;7.210;2023-06-24T07:45:19;101757.38;;;23.05;69.84
12636;BME280;6383;50.830;7.210;2023-06-24T07:47:49;101752.03;;;23.12;69.55
12636;BME280;6383;50.830;7.210;2023-06-24T07:50:18;101763.22;;;23.16;69.08
12636;BME280;6383;50.830;7.210;2023-06-24T07:52:46;101755.53;;;23.25;69.27
12636;BME280;6383;50.830;7.210;2023-06-24T07:55:17;101755.25;;;23.30;69.64
12636;BME280;6383;50.830;7.210;2023-06-24T07:57:46;101749.53;;;23.39;70.30
12636;BME280;6383;50.830;7.210;2023-06-24T08:00:15;101748.81;;;23.42;69.37
12636;BME280;6383;50.830;7.210;2023-06-24T08:02:44;101744.94;;;23.46;69.10
12636;BME280;6383;50.830;7.210;2023-06-24T08:05:13;101744.81;;;23.55;69.68
12636;BME280;6383;50.830;7.210;2023-06-24T08:07:42;101748.84;;;23.58;67.78
12636;BME280;6383;50.830;7.210;2023-06-24T08:10:11;101740.16;;;23.59;67.96
12636;BME280;6383;50.830;7.210;2023-06-24T08:12:42;101743.00;;;23.63;66.97
12636;BME280;6383;50.830;7.210;2023-06-24T08:15:12;101747.38;;;23.64;67.47
12636;BME280;6383;50.830;7.210;2023-06-24T08:17:51;101742.00;;;23.71;67.86
12636;BME280;6383;50.830;7.210;2023-06-24T08:20:21;101731.84;;;23.78;68.45
12636;BME280;6383;50.830;7.210;2023-06-24T08:22:48;101734.81;;;23.85;67.72
12636;BME280;6383;50.830;7.210;2023-06-24T08:25:19;101726.91;;;23.87;66.53
12636;BME280;6383;50.830;7.210;2023-06-24T08:27:50;101735.63;;;23.86;65.32
12636;BME280;6383;50.830;7.210;2023-06-24T08:30:19;101726.47;;;23.85;66.31
12636;BME280;6383;50.830;7.210;2023-06-24T08:32:48;101724.63;;;23.93;66.38
12636;BME280;6383;50.830;7.210;2023-06-24T08:35:18;101734.31;;;23.99;65.86
12636;BME280;6383;50.830;7.210;2023-06-24T08:37:46;101728.84;;;24.03;65.30
12636;BME280;6383;50.830;7.210;2023-06-24T08:40:17;101726.28;;;24.13;67.05
12636;BME280;6383;50.830;7.210;2023-06-24T08:42:46;101719.19;;;24.16;65.08
12636;BME280;6383;50.830;7.210;2023-06-24T08:45:17;101726.38;;;24.17;65.34
12636;BME280;6383;50.830;7.210;2023-06-24T08:47:46;101721.88;;;24.28;65.56
12636;BME280;6383;50.830;7.210;2023-06-24T08:50:18;101721.63;;;24.37;65.84
12636;BME280;6383;50.830;7.210;2023-06-24T08:52:50;101716.31;;;24.47;66.60
12636;BME280;6383;50.830;7.210;2023-06-24T08:55:22;101723.53;;;24.52;65.46
12636;BME280;6383;50.830;7.210;2023-06-24T08:57:50;101720.09;;;24.58;65.73
12636;BME280;6383;50.830;7.210;2023-06-24T09:00:21;101717.44;;;24.66;65.24
12636;BME280;6383;50.830;7.210;2023-06-24T09:02:50;101716.78;;;24.72;65.10
12636;BME280;6383;50.830;7.210;2023-06-24T09:05:36;101721.25;;;24.77;64.50
12636;BME280;6383;50.830;7.210;2023-06-24T09:08:05;101717.06;;;24.86;64.43
12636;BME280;6383;50.830;7.210;2023-06-24T09:10:36;101716.25;;;24.86;62.88
12636;BME280;6383;50.830;7.210;2023-06-24T09:13:05;101711.91;;;24.88;63.21
12636;BME280;6383;50.830;7.210;2023-06-24T09:15:37;101710.44;;;24.94;63.35
12636;BME280;6383;50.830;7.210;2023-06-24T09:18:05;101710.16;;;25.00;62.51
12636;BME280;6383;50.830;7.210;2023-06-24T09:20:35;101708.53;;;24.99;59.47
12636;BME280;6383;50.830;7.210;2023-06-24T09:23:07;101708.69;;;25.06;60.03
12636;BME280;6383;50.830;7.210;2023-06-24T09:25:36;101702.94;;;25.18;61.47
12636;BME280;6383;50.830;7.210;2023-06-24T09:28:05;101702.72;;;25.30;61.27
12636;BME280;6383;50.830;7.210;2023-06-24T09:30:36;101696.03;;;25.35;60.88
12636;BME280;6383;50.830;7.210;2023-06-24T09:33:05;101694.50;;;25.37;59.37
12636;BME280;6383;50.830;7.210;2023-06-24T09:35:36;101686.97;;;25.41;56.82
12636;BME280;6383;50.830;7.210;2023-06-24T09:38:05;101689.13;;;25.51;57.74
12636;BME280;6383;50.830;7.210;2023-06-24T09:40:35;101681.75;;;25.62;58.00
12636;BME280;6383;50.830;7.210;2023-06-24T09:43:05;101675.00;;;25.63;55.97
12636;BME280;6383;50.830;7.210;2023-06-24T09:45:38;101685.00;;;25.68;55.62
12636;BME280;6383;50.830;7.210;2023-06-24T09:48:07;101679.19;;;25.77;57.26
12636;BME280;6383;50.830;7.210;2023-06-24T09:50:34;101671.69;;;25.84;56.17
12636;BME280;6383;50.830;7.210;2023-06-24T09:53:03;101666.59;;;25.90;56.01
12636;BME280;6383;50.830;7.210;2023-06-24T09:55:33;101669.50;;;25.97;56.34
12636;BME280;6383;50.830;7.210;2023-06-24T09:58:01;101673.56;;;26.03;55.59
12636;BME280;6383;50.830;7.210;2023-06-24T10:00:30;101659.22;;;26.05;53.31
12636;BME280;6383;50.830;7.210;2023-06-24T10:03:02;101657.66;;;26.07;53.57
12636;BME280;6383;50.830;7.210;2023-06-24T10:05:32;101663.31;;;26.14;54.15
12636;BME280;6383;50.830;7.210;2023-06-24T10:08:02;101664.56;;;26.17;53.80
12636;BME280;6383;50.830;7.210;2023-06-24T10:10:30;101660.31;;;26.26;52.26
12636;BME280;6383;50.830;7.210;2023-06-24T10:12:59;101651.19;;;26.29;51.46
12636;BME280;6383;50.830;7.210;2023-06-24T10:15:29;101650.38;;;26.29;51.67
12636;BME280;6383;50.830;7.210;2023-06-24T10:18:02;101651.97;;;26.30;50.41
12636;BME280;6383;50.830;7.210;2023-06-24T10:20:36;101653.31;;;26.40;52.04
12636;BME280;6383;50.830;7.210;2023-06-24T10:23:06;101641.44;;;26.50;53.37
12636;BME280;6383;50.830;7.210;2023-06-24T10:25:36;101638.31;;;26.58;53.87
12636;BME280;6383;50.830;7.210;2023-06-24T10:28:05;101643.94;;;26.62;51.85
12636;BME280;6383;50.830;7.210;2023-06-24T10:30:36;101643.56;;;26.63;50.67
12636;BME280;6383;50.830;7.210;2023-06-24T10:33:09;101635.19;;;26.63;49.99
12636;BME280;6383;50.830;7.210;2023-06-24T10:35:41;101636.03;;;26.67;50.83
12636;BME280;6383;50.830;7.210;2023-06-24T10:38:11;101638.88;;;26.71;51.30
12636;BME280;6383;50.830;7.210;2023-06-24T10:40:40;101634.91;;;26.76;51.72
12636;BME280;6383;50.830;7.210;2023-06-24T10:43:25;101631.72;;;26.77;52.29
12636;BME280;6383;50.830;7.210;2023-06-24T10:45:56;101622.94;;;26.75;51.80
12636;BME280;6383;50.830;7.210;2023-06-24T10:48:27;101623.00;;;26.82;52.40
12636;BME280;6383;50.830;7.210;2023-06-24T10:50:56;101611.88;;;26.89;49.90
12636;BME280;6383;50.830;7.210;2023-06-24T10:53:25;101613.16;;;26.95;49.96
12636;BME280;6383;50.830;7.210;2023-06-24T10:55:58;101610.84;;;27.04;50.99
12636;BME280;6383;50.830;7.210;2023-06-24T10:58:26;101611.25;;;27.07;47.20
12636;BME280;6383;50.830;7.210;2023-06-24T11:01:06;101594.91;;;27.09;45.45
12636;BME280;6383;50.830;7.210;2023-06-24T11:03:39;101603.28;;;27.09;44.41
12636;BME280;6383;50.830;7.210;2023-06-24T11:06:10;101588.47;;;27.04;44.01
12636;BME280;6383;50.830;7.210;2023-06-24T11:08:43;101595.31;;;27.11;45.42
12636;BME280;6383;50.830;7.210;2023-06-24T11:11:18;101595.75;;;27.16;46.42
12636;BME280;6383;50.830;7.210;2023-06-24T11:13:49;101591.38;;;27.19;46.12
12636;BME280;6383;50.830;7.210;2023-06-24T11:16:20;101587.03;;;27.25;45.78
12636;BME280;6383;50.830;7.210;2023-06-24T11:18:51;101577.50;;;27.29;46.48
12636;BME280;6383;50.830;7.210;2023-06-24T11:21:28;101577.88;;;27.31;45.18
12636;BME280;6383;50.830;7.210;2023-06-24T11:24:00;101575.50;;;27.33;45.06
12636;BME280;6383;50.830;7.210;2023-06-24T11:26:29;101569.56;;;27.42;45.10
12636;BME280;6383;50.830;7.210;2023-06-24T11:28:58;101574.75;;;27.40;42.89
12636;BME280;6383;50.830;7.210;2023-06-24T11:31:25;101573.56;;;27.41;43.96
12636;BME280;6383;50.830;7.210;2023-06-24T11:33:56;101570.78;;;27.45;45.19
12636;BME280;6383;50.830;7.210;2023-06-24T11:36:24;101574.38;;;27.49;46.28
12636;BME280;6383;50.830;7.210;2023-06-24T11:38:51;101570.78;;;27.45;44.90
12636;BME280;6383;50.830;7.210;2023-06-24T11:41:21;101567.59;;;27.50;46.22
12636;BME280;6383;50.830;7.210;2023-06-24T11:43:49;101569.28;;;27.61;45.38
12636;BME280;6383;50.830;7.210;2023-06-24T11:46:23;101552.53;;;27.68;44.47
12636;BME280;6383;50.830;7.210;2023-06-24T11:48:53;101553.75;;;27.78;45.85
12636;BME280;6383;50.830;7.210;2023-06-24T11:51:33;101553.00;;;27.85;44.42
12636;BME280;6383;50.830;7.210;2023-06-24T11:54:05;101557.44;;;27.96;44.75
12636;BME280;6383;50.830;7.210;2023-06-24T11:56:35;101559.44;;;28.06;44.60
12636;BME280;6383;50.830;7.210;2023-06-24T11:59:05;101543.06;;;28.12;44.41
12636;BME280;6383;50.830;7.210;2023-06-24T12:01:35;101540.28;;;28.12;43.57
12636;BME280;6383;50.830;7.210;2023-06-24T12:04:09;101537.88;;;28.14;44.13
12636;BME280;6383;50.830;7.210;2023-06-24T12:06:46;101533.13;;;28.25;43.72
12636;BME280;6383;50.830;7.210;2023-06-24T12:09:16;101525.13;;;28.27;43.51
12636;BME280;6383;50.830;7.210;2023-06-24T12:11:48;101528.28;;;28.12;41.77
12636;BME280;6383;50.830;7.210;2023-06-24T12:14:17;101531.06;;;28.08;43.77
12636;BME280;6383;50.830;7.210;2023-06-24T12:16:45;101525.44;;;27.97;42.50
12636;BME280;6383;50.830;7.210;2023-06-24T12:19:15;101524.28;;;28.02;43.99
12636;BME280;6383;50.830;7.210;2023-06-24T12:21:44;101526.66;;;27.96;41.60
12636;BME280;6383;50.830;7.210;2023-06-24T12:24:15;101521.47;;;28.02;42.26
12636;BME280;6383;50.830;7.210;2023-06-24T12:26:45;101516.69;;;28.17;43.42
12636;BME280;6383;50.830;7.210;2023-06-24T12:29:15;101507.53;;;28.23;42.30
12636;BME280;6383;50.830;7.210;2023-06-24T12:31:54;101511.53;;;28.26;42.92
12636;BME280;6383;50.830;7.210;2023-06-24T12:34:29;101507.94;;;28.29;43.46
12636;BME280;6383;50.830;7.210;2023-06-24T12:37:02;101507.94;;;28.32;41.16
12636;BME280;6383;50.830;7.210;2023-06-24T12:39:33;101504.34;;;28.32;40.87
12636;BME280;6383;50.830;7.210;2023-06-24T12:42:21;101505.56;;;28.31;40.15
12636;BME280;6383;50.830;7.210;2023-06-24T12:44:51;101507.94;;;28.36;41.01
12636;BME280;6383;50.830;7.210;2023-06-24T12:47:20;101501.53;;;28.35;41.43
12636;BME280;6383;50.830;7.210;2023-06-24T12:49:49;101506.75;;;28.40;41.33
12636;BME280;6383;50.830;7.210;2023-06-24T12:52:17;101503.94;;;28.55;41.12
12636;BME280;6383;50.830;7.210;2023-06-24T12:54:47;101504.34;;;28.64;38.89
12636;BME280;6383;50.830;7.210;2023-06-24T12:57:20;101504.34;;;28.74;38.94
12636;BME280;6383;50.830;7.210;2023-06-24T12:59:52;101500.34;;;28.83;39.77
12636;BME280;6383;50.830;7.210;2023-06-24T13:02:24;101497.50;;;29.00;40.91
12636;BME280;6383;50.830;7.210;2023-06-24T13:04:59;101493.88;;;29.10;40.03
12636;BME280;6383;50.830;7.210;2023-06-24T13:07:31;101495.47;;;29.19;38.27
12636;BME280;6383;50.830;7.210;2023-06-24T13:10:04;101495.03;;;29.24;39.84
12636;BME280;6383;50.830;7.210;2023-06-24T13:12:37;101490.22;;;29.24;38.70
12636;BME280;6383;50.830;7.210;2023-06-24T13:15:08;101494.63;;;29.25;37.87
12636;BME280;6383;50.830;7.210;2023-06-24T13:17:38;101496.63;;;29.28;38.07
12636;BME280;6383;50.830;7.210;2023-06-24T13:20:11;101487.00;;;29.33;37.58